createdAt,value
2022-09-13T00:00:44.282Z,5.15
2022-09-13T00:03:12.873Z,7.07
2022-09-13T00:05:40.084Z,4.40
2022-09-13T00:08:08.986Z,5.63
2022-09-13T00:10:37.691Z,7.65
2022-09-13T00:13:06.697Z,4.47
2022-09-13T00:15:33.735Z,5.72
2022-09-13T00:18:00.664Z,7.95
2022-09-13T00:20:27.841Z,5.60
2022-09-13T00:22:54.845Z,7.55
2022-09-13T00:25:21.678Z,5.70
2022-09-13T00:27:48.538Z,5.85
2022-09-13T00:30:15.341Z,4.25
2022-09-13T00:32:42.152Z,9.95
2022-09-13T00:35:09.407Z,9.00
2022-09-13T00:37:36.264Z,4.55
2022-09-13T00:40:03.931Z,6.10
2022-09-13T00:42:32.930Z,6.13
2022-09-13T00:45:01.032Z,5.85
2022-09-13T00:47:34.598Z,3.55
2022-09-13T00:50:11.354Z,5.60
2022-09-13T00:52:42.775Z,5.00
2022-09-13T00:55:35.015Z,4.35
2022-09-13T00:58:08.588Z,5.80
2022-09-13T01:00:36.437Z,5.20
2022-09-13T01:03:08.241Z,5.65
2022-09-13T01:05:46.218Z,4.40
2022-09-13T01:08:20.505Z,7.15
2022-09-13T01:10:49.349Z,6.22
2022-09-13T01:13:21.614Z,5.45
2022-09-13T01:15:48.832Z,7.35
2022-09-13T01:18:16.459Z,11.98
2022-09-13T01:21:20.014Z,3.78
2022-09-13T01:24:09.193Z,6.75
2022-09-13T01:26:48.216Z,6.00
2022-09-13T01:29:53.697Z,6.88
2022-09-13T01:32:33.928Z,6.72
2022-09-13T01:35:17.044Z,5.10
2022-09-13T01:38:37.897Z,5.20
2022-09-13T01:41:24.928Z,3.92
2022-09-13T01:44:08.827Z,5.95
2022-09-13T01:46:47.356Z,4.85
2022-09-13T01:49:43.895Z,4.05
2022-09-13T01:52:10.692Z,3.67
2022-09-13T01:54:44.212Z,5.60
2022-09-13T01:57:17.359Z,5.03
2022-09-13T01:59:52.664Z,6.07
2022-09-13T02:02:36.907Z,3.92
2022-09-13T02:05:16.444Z,4.88
2022-09-13T02:07:53.847Z,7.10
2022-09-13T02:10:31.562Z,3.08
2022-09-13T02:12:59.367Z,6.80
2022-09-13T02:15:37.729Z,5.68
2022-09-13T02:18:19.654Z,5.45
2022-09-13T02:20:50.374Z,3.25
2022-09-13T02:23:40.515Z,3.75
2022-09-13T02:26:09.699Z,5.28
2022-09-13T02:28:42.135Z,4.57
2022-09-13T02:31:10.368Z,5.60
2022-09-13T02:33:44.258Z,5.13
2022-09-13T02:36:18.777Z,3.10
2022-09-13T02:38:56.515Z,4.00
2022-09-13T02:41:46.451Z,3.90
2022-09-13T02:44:42.491Z,4.88
2022-09-13T02:47:26.801Z,5.32
2022-09-13T02:50:09.154Z,7.88
2022-09-13T02:53:02.911Z,2.38
2022-09-13T02:55:35.163Z,3.42
2022-09-13T02:58:14.164Z,2.85
2022-09-13T03:00:41.551Z,3.13
2022-09-13T03:03:12.445Z,6.57
2022-09-13T03:05:40.149Z,5.50
2022-09-13T03:08:10.819Z,4.35
2022-09-13T03:11:07.930Z,2.92
2022-09-13T03:13:37.650Z,3.22
2022-09-13T03:16:16.892Z,5.25
2022-09-13T03:19:20.588Z,8.50
2022-09-13T03:21:59.316Z,2.65
2022-09-13T03:24:51.030Z,7.10
2022-09-13T03:27:24.710Z,6.20
2022-09-13T03:29:57.744Z,2.92
2022-09-13T03:32:50.205Z,5.20
2022-09-13T03:35:41.590Z,7.00
2022-09-13T03:38:31.891Z,5.90
2022-09-13T03:41:13.577Z,7.93
2022-09-13T03:43:49.018Z,7.43
2022-09-13T03:46:30.969Z,11.60
2022-09-13T03:49:03.024Z,6.38
2022-09-13T03:51:30.449Z,4.57
2022-09-13T03:54:02.401Z,8.27
2022-09-13T03:58:56.327Z,6.97
2022-09-13T04:01:24.597Z,10.18
2022-09-13T04:03:56.424Z,4.50
2022-09-13T04:06:23.867Z,5.70
2022-09-13T04:08:50.857Z,7.00
2022-09-13T04:11:17.718Z,7.57
2022-09-13T04:13:44.596Z,9.23
2022-09-13T04:16:12.069Z,4.90
2022-09-13T04:18:38.916Z,6.90
2022-09-13T04:21:06.124Z,10.18
2022-09-13T04:23:33.194Z,9.60
2022-09-13T04:26:04.957Z,6.72
2022-09-13T04:28:31.879Z,15.55
2022-09-13T04:30:58.734Z,6.20
2022-09-13T04:33:25.991Z,8.02
2022-09-13T04:36:00.081Z,15.40
2022-09-13T04:38:27.641Z,7.00
2022-09-13T04:40:57.710Z,5.63
2022-09-13T04:43:24.854Z,10.60
2022-09-13T04:45:51.820Z,12.55
2022-09-13T04:48:18.890Z,17.52
2022-09-13T04:50:46.112Z,11.10
2022-09-13T04:53:13.723Z,13.75
2022-09-13T04:55:40.847Z,15.27
2022-09-13T04:58:07.722Z,19.30
2022-09-13T05:00:35.602Z,13.52
2022-09-13T05:03:02.664Z,16.27
2022-09-13T05:05:31.133Z,14.27
2022-09-13T05:07:58.146Z,6.93
2022-09-13T05:10:25.152Z,14.98
2022-09-13T05:12:52.752Z,8.48
2022-09-13T05:15:19.569Z,9.90
2022-09-13T05:17:46.425Z,14.32
2022-09-13T05:20:13.448Z,8.40
2022-09-13T05:22:40.291Z,8.27
2022-09-13T05:25:07.895Z,7.57
2022-09-13T05:27:34.791Z,6.55
2022-09-13T05:30:01.656Z,7.28
2022-09-13T05:32:28.527Z,6.03
2022-09-13T05:34:55.304Z,8.02
2022-09-13T05:37:22.259Z,11.07
2022-09-13T05:40:10.128Z,14.80
2022-09-13T05:42:35.872Z,22.05
2022-09-13T05:45:02.804Z,21.67
2022-09-13T05:47:29.580Z,13.63
2022-09-13T05:50:09.895Z,8.38
2022-09-13T05:52:37.899Z,13.68
2022-09-13T05:55:05.071Z,13.95
2022-09-13T05:57:31.965Z,11.35
2022-09-13T05:59:58.815Z,11.90
2022-09-13T06:02:25.663Z,20.38
2022-09-13T06:04:52.567Z,9.82
2022-09-13T06:07:19.368Z,12.00
2022-09-13T06:09:46.158Z,15.63
2022-09-13T06:12:12.964Z,7.10
2022-09-13T06:14:40.041Z,7.10
2022-09-13T06:17:07.043Z,6.00
2022-09-13T06:19:33.870Z,5.57
2022-09-13T06:22:00.728Z,7.88
2022-09-13T06:24:27.537Z,10.60
2022-09-13T06:26:54.343Z,14.05
2022-09-13T06:29:21.202Z,9.73
2022-09-13T06:31:48.176Z,9.48
2022-09-13T06:34:16.240Z,7.13
2022-09-13T06:36:43.691Z,16.63
2022-09-13T06:39:10.633Z,17.23
2022-09-13T06:41:37.913Z,9.90
2022-09-13T06:44:05.159Z,8.13
2022-09-13T06:46:34.095Z,18.83
2022-09-13T06:49:06.733Z,13.13
2022-09-13T06:51:34.766Z,9.15
2022-09-13T06:54:03.878Z,10.32
2022-09-13T06:56:33.380Z,9.88
2022-09-13T06:59:04.791Z,9.15
2022-09-13T07:01:40.446Z,16.00
2022-09-13T07:04:19.531Z,18.35
2022-09-13T07:06:48.714Z,17.88
2022-09-13T07:09:21.612Z,15.40
2022-09-13T07:11:50.431Z,16.17
2022-09-13T07:14:25.649Z,21.92
2022-09-13T07:16:52.689Z,16.02
2022-09-13T07:19:26.459Z,11.98
2022-09-13T07:21:54.905Z,9.13
2022-09-13T07:24:22.944Z,84.05
2022-09-13T07:26:50.818Z,8.77
2022-09-13T07:29:19.977Z,15.30
2022-09-13T07:31:49.893Z,14.02
2022-09-13T07:34:20.406Z,19.65
2022-09-13T07:36:48.148Z,12.30
2022-09-13T07:39:20.284Z,7.07
2022-09-13T07:41:49.191Z,11.18
2022-09-13T07:44:16.075Z,9.25
2022-09-13T07:46:45.782Z,9.50
2022-09-13T07:49:14.699Z,10.82
2022-09-13T07:51:43.974Z,11.07
2022-09-13T07:54:16.428Z,13.50
2022-09-13T07:56:43.792Z,17.40
2022-09-13T07:59:16.110Z,11.23
2022-09-13T08:01:45.269Z,13.95
2022-09-13T08:04:14.661Z,9.52
2022-09-13T08:06:43.422Z,10.85
2022-09-13T08:09:11.327Z,15.82
2022-09-13T08:11:46.656Z,15.82
2022-09-13T08:14:20.855Z,12.55
2022-09-13T08:16:48.886Z,13.70
2022-09-13T08:19:18.390Z,13.60
2022-09-13T08:21:48.000Z,10.38
2022-09-13T08:24:23.953Z,6.55
2022-09-13T08:26:52.222Z,8.57
2022-09-13T08:29:19.451Z,173.13
2022-09-13T08:31:46.565Z,103.47
2022-09-13T08:34:15.623Z,10.93
2022-09-13T08:36:43.396Z,11.40
2022-09-13T08:39:13.581Z,7.30
2022-09-13T08:41:42.000Z,12.02
2022-09-13T08:44:34.768Z,10.65
2022-09-13T08:47:35.786Z,16.98
2022-09-13T08:50:05.537Z,7.15
2022-09-13T08:52:51.236Z,8.60
2022-09-13T08:55:24.315Z,6.45
2022-09-13T08:58:18.792Z,9.10
2022-09-13T09:00:51.872Z,7.97
2022-09-13T09:03:39.295Z,9.48
2022-09-13T09:06:13.713Z,8.52
2022-09-13T09:08:53.709Z,11.10
2022-09-13T09:11:31.716Z,11.00
2022-09-13T09:14:03.193Z,12.90
2022-09-13T09:16:49.586Z,12.15
2022-09-13T09:19:25.336Z,12.35
2022-09-13T09:21:52.361Z,12.57
2022-09-13T09:24:25.912Z,13.45
2022-09-13T09:26:58.174Z,13.45
2022-09-13T09:29:28.456Z,28.02
2022-09-13T09:32:22.858Z,15.95
2022-09-13T09:35:11.878Z,17.88
2022-09-13T09:41:39.683Z,16.40
2022-09-13T09:44:34.028Z,25.98
2022-09-13T09:47:29.818Z,15.40
2022-09-13T09:50:09.370Z,11.20
2022-09-13T09:52:56.741Z,18.33
2022-09-13T09:55:50.509Z,13.82
2022-09-13T09:58:19.168Z,13.73
2022-09-13T10:00:55.251Z,15.07
2022-09-13T10:03:29.676Z,12.25
2022-09-13T10:06:08.791Z,14.00
2022-09-13T10:08:38.349Z,12.55
2022-09-13T10:11:06.753Z,13.77
2022-09-13T10:13:34.143Z,58.03
2022-09-13T10:16:31.215Z,21.10
2022-09-13T10:19:24.884Z,27.17
2022-09-13T10:22:12.341Z,27.27
2022-09-13T10:24:40.661Z,26.50
2022-09-13T10:27:42.317Z,28.98
2022-09-13T10:32:58.386Z,21.38
2022-09-13T10:35:25.830Z,30.50
2022-09-13T10:37:52.984Z,20.45
2022-09-13T10:40:27.109Z,15.07
2022-09-13T10:42:59.581Z,21.30
2022-09-13T10:45:29.585Z,13.98
2022-09-13T10:48:05.285Z,27.08
2022-09-13T10:50:33.421Z,15.32
2022-09-13T10:53:02.130Z,18.98
2022-09-13T10:55:40.787Z,25.30
2022-09-13T10:58:07.778Z,14.55
2022-09-13T11:01:17.094Z,18.35
2022-09-13T11:04:11.793Z,12.13
2022-09-13T11:07:02.141Z,14.00
2022-09-13T11:10:02.761Z,17.05
2022-09-13T11:12:43.612Z,25.48
2022-09-13T11:15:18.950Z,11.45
2022-09-13T11:18:12.632Z,12.32
2022-09-13T11:21:22.018Z,14.77
2022-09-13T11:24:31.332Z,15.13
2022-09-13T11:27:23.975Z,21.05
2022-09-13T11:30:10.745Z,15.43
2022-09-13T11:32:59.266Z,16.40
2022-09-13T11:36:01.177Z,11.30
2022-09-13T11:38:51.419Z,11.80
2022-09-13T11:41:46.038Z,14.65
2022-09-13T11:44:48.398Z,14.38
2022-09-13T11:47:33.550Z,11.32
2022-09-13T11:50:03.402Z,13.07
2022-09-13T11:53:00.000Z,18.38
2022-09-13T11:55:32.672Z,11.15
2022-09-13T11:58:04.406Z,10.48
2022-09-13T12:00:44.057Z,8.10
2022-09-13T12:03:22.381Z,11.90
2022-09-13T12:06:05.191Z,13.45
2022-09-13T12:08:45.440Z,9.38
2022-09-13T12:11:19.660Z,9.68
2022-09-13T12:13:52.380Z,14.50
2022-09-13T12:16:45.956Z,14.82
2022-09-13T12:19:22.203Z,11.05
2022-09-13T12:21:50.700Z,8.40
2022-09-13T12:24:20.796Z,6.72
2022-09-13T12:27:03.224Z,13.38
2022-09-13T12:29:49.157Z,14.32
2022-09-13T12:32:17.783Z,13.65
2022-09-13T12:34:58.386Z,8.55
2022-09-13T12:37:43.756Z,7.57
2022-09-13T12:40:20.384Z,10.00
2022-09-13T12:43:08.222Z,13.48
2022-09-13T12:45:54.760Z,12.90
2022-09-13T12:49:00.507Z,11.07
2022-09-13T12:51:48.866Z,14.80
2022-09-13T12:55:06.266Z,14.48
2022-09-13T12:57:57.324Z,10.60
2022-09-13T13:00:30.372Z,12.07
2022-09-13T13:03:15.767Z,8.77
2022-09-13T13:05:54.352Z,6.72
2022-09-13T13:08:21.167Z,6.63
2022-09-13T13:11:05.973Z,7.90
2022-09-13T13:13:43.253Z,10.65
2022-09-13T13:16:30.870Z,12.90
2022-09-13T13:18:59.831Z,9.50
2022-09-13T13:21:30.528Z,15.77
2022-09-13T13:24:15.813Z,17.58
2022-09-13T13:26:42.558Z,15.73
2022-09-13T13:29:16.633Z,13.38
2022-09-13T13:32:07.900Z,12.75
2022-09-13T13:34:43.467Z,11.98
2022-09-13T13:37:10.227Z,8.18
2022-09-13T13:39:48.214Z,8.00
2022-09-13T13:42:27.401Z,10.98
2022-09-13T13:44:54.179Z,15.73
2022-09-13T13:47:20.934Z,11.95
2022-09-13T13:50:10.845Z,10.68
2022-09-13T13:52:55.978Z,10.57
2022-09-13T13:55:31.718Z,13.80
2022-09-13T13:58:05.841Z,10.35
2022-09-13T14:00:35.406Z,11.30
2022-09-13T14:03:02.252Z,15.75
2022-09-13T14:05:50.721Z,17.52
2022-09-13T14:08:37.517Z,14.00
2022-09-13T14:11:29.842Z,14.32
2022-09-13T14:14:27.872Z,12.20
2022-09-13T14:17:32.407Z,16.85
2022-09-13T14:20:12.428Z,11.00
2022-09-13T14:22:39.366Z,15.55
2022-09-13T14:25:23.877Z,13.35
2022-09-13T14:27:56.945Z,12.80
2022-09-13T14:30:29.850Z,10.13
2022-09-13T14:32:58.266Z,15.10
2022-09-13T14:35:37.865Z,13.23
2022-09-13T14:38:22.932Z,16.38
2022-09-13T14:40:51.757Z,13.40
2022-09-13T14:43:27.694Z,14.80
2022-09-13T14:46:03.272Z,10.57
2022-09-13T14:48:51.589Z,18.92
2022-09-13T14:51:22.745Z,14.23
2022-09-13T14:53:54.280Z,17.20
2022-09-13T14:56:36.969Z,11.23
2022-09-13T14:59:08.236Z,10.63
2022-09-13T15:01:36.051Z,14.32
2022-09-13T15:04:05.504Z,18.35
2022-09-13T15:06:38.409Z,17.33
2022-09-13T15:09:11.581Z,16.33
2022-09-13T15:11:55.187Z,9.77
2022-09-13T15:14:24.787Z,10.38
2022-09-13T15:16:54.876Z,10.57
2022-09-13T15:19:24.351Z,17.73
2022-09-13T15:21:51.559Z,15.45
2022-09-13T15:24:34.336Z,13.00
2022-09-13T15:27:05.887Z,13.43
2022-09-13T15:29:34.960Z,24.63
2022-09-13T15:32:06.754Z,17.17
2022-09-13T15:37:06.462Z,11.77
2022-09-13T15:39:51.757Z,16.85
2022-09-13T15:42:18.616Z,19.45
2022-09-13T15:44:45.523Z,17.80
2022-09-13T15:47:17.865Z,15.73
2022-09-13T15:49:50.727Z,14.00
2022-09-13T15:52:20.743Z,19.65
2022-09-13T15:54:49.941Z,13.93
2022-09-13T15:57:24.284Z,18.45
2022-09-13T15:59:52.072Z,24.02
2022-09-13T16:02:28.585Z,18.25
2022-09-13T16:04:56.267Z,20.02
2022-09-13T16:07:24.837Z,17.40
2022-09-13T16:09:53.175Z,16.50
2022-09-13T16:12:23.565Z,17.20
2022-09-13T16:14:50.734Z,17.52
2022-09-13T16:17:21.782Z,31.05
2022-09-13T16:19:48.778Z,31.73
2022-09-13T16:22:16.033Z,19.38
2022-09-13T16:24:42.988Z,20.08
2022-09-13T16:27:14.232Z,22.08
2022-09-13T16:29:41.576Z,13.68
2022-09-13T16:32:08.405Z,19.52
2022-09-13T16:34:35.203Z,16.33
2022-09-13T16:37:02.346Z,21.27
2022-09-13T16:39:29.384Z,17.70
2022-09-13T16:41:56.455Z,23.67
2022-09-13T16:44:23.377Z,23.73
2022-09-13T16:46:50.230Z,20.30
2022-09-13T16:49:17.409Z,16.75
2022-09-13T16:51:44.230Z,20.27
2022-09-13T16:54:11.015Z,26.02
2022-09-13T16:56:39.146Z,37.60
2022-09-13T16:59:06.036Z,26.02
2022-09-13T17:01:33.073Z,26.35
2022-09-13T17:04:00.149Z,33.63
2022-09-13T17:06:27.628Z,33.00
2022-09-13T17:08:57.229Z,27.20
2022-09-13T17:11:26.676Z,28.30
2022-09-13T17:13:54.689Z,27.67
2022-09-13T17:16:28.471Z,30.38
2022-09-13T17:18:57.727Z,27.92
2022-09-13T17:21:26.276Z,23.38
2022-09-13T17:23:54.024Z,30.92
2022-09-13T17:26:21.852Z,29.25
2022-09-13T17:28:48.812Z,36.20
2022-09-13T17:31:15.993Z,30.85
2022-09-13T17:33:42.905Z,29.70
2022-09-13T17:36:11.771Z,34.72
2022-09-13T17:38:39.517Z,29.13
2022-09-13T17:41:09.595Z,24.55
2022-09-13T17:43:37.364Z,26.20
2022-09-13T17:46:08.854Z,33.97
2022-09-13T17:48:35.757Z,30.08
2022-09-13T17:51:04.526Z,31.20
2022-09-13T17:53:32.496Z,30.08
2022-09-13T17:55:59.316Z,25.63
2022-09-13T17:58:27.187Z,32.72
2022-09-13T18:01:02.057Z,62.67
2022-09-13T18:03:30.552Z,36.75
2022-09-13T18:05:59.048Z,37.95
2022-09-13T18:08:27.205Z,29.27
2022-09-13T18:11:12.225Z,30.17
2022-09-13T18:13:41.793Z,27.83
2022-09-13T18:16:20.137Z,26.70
2022-09-13T18:18:48.797Z,27.55
2022-09-13T18:21:19.819Z,24.83
2022-09-13T18:23:48.918Z,25.13
2022-09-13T18:26:19.014Z,20.15
2022-09-13T18:28:48.289Z,23.80
2022-09-13T18:31:17.318Z,36.13
2022-09-13T18:33:45.138Z,33.08
2022-09-13T18:36:17.292Z,29.20
2022-09-13T18:38:46.895Z,29.65
2022-09-13T18:41:15.091Z,26.75
2022-09-13T18:43:43.704Z,28.35
2022-09-13T18:46:16.201Z,29.38
2022-09-13T18:48:45.513Z,28.58
2022-09-13T18:51:15.922Z,28.45
2022-09-13T18:53:43.361Z,34.22
2022-09-13T18:56:12.629Z,28.27
2022-09-13T18:58:40.709Z,30.27
2022-09-13T19:01:28.605Z,29.10
2022-09-13T19:03:58.496Z,35.00
2022-09-13T19:06:29.383Z,26.23
2022-09-13T19:08:57.908Z,26.80
2022-09-13T19:11:45.714Z,25.58
2022-09-13T19:14:23.190Z,28.90
2022-09-13T19:16:51.440Z,24.48
2022-09-13T19:19:18.538Z,152.85
2022-09-13T19:21:46.479Z,139.80
2022-09-13T19:24:20.377Z,30.05
2022-09-13T19:26:51.014Z,27.92
2022-09-13T19:29:20.915Z,27.13
2022-09-13T19:31:49.411Z,27.75
2022-09-13T19:34:18.644Z,22.95
2022-09-13T19:36:45.873Z,27.63
2022-09-13T19:39:13.213Z,24.80
2022-09-13T19:41:41.336Z,26.15
2022-09-13T19:44:09.545Z,29.65
2022-09-13T19:46:39.001Z,27.90
2022-09-13T19:49:08.330Z,24.63
2022-09-13T19:51:37.723Z,27.13
2022-09-13T19:54:06.646Z,24.75
2022-09-13T19:56:39.283Z,26.17
2022-09-13T19:59:08.154Z,23.95
2022-09-13T20:01:40.749Z,22.90
2022-09-13T20:04:13.390Z,24.23
2022-09-13T20:06:42.625Z,22.52
2022-09-13T20:09:10.865Z,19.95
2022-09-13T20:11:42.209Z,19.20
2022-09-13T20:16:39.450Z,28.30
2022-09-13T20:19:29.727Z,20.23
2022-09-13T20:21:55.495Z,31.42
2022-09-13T20:24:22.393Z,18.27
2022-09-13T20:26:52.106Z,22.08
2022-09-13T20:29:19.231Z,23.23
2022-09-13T20:31:46.310Z,118.35
2022-09-13T20:34:17.489Z,99.68
2022-09-13T20:36:45.661Z,76.78
2022-09-13T20:39:14.993Z,21.15
2022-09-13T20:41:43.508Z,24.75
2022-09-13T20:44:11.372Z,28.42
2022-09-13T20:46:40.379Z,24.65
2022-09-13T20:49:09.255Z,45.67
2022-09-13T20:51:37.457Z,41.05
2022-09-13T20:54:05.454Z,25.42
2022-09-13T20:56:34.741Z,31.30
2022-09-13T20:59:02.743Z,40.10
2022-09-13T21:01:31.600Z,46.17
2022-09-13T21:03:59.706Z,47.90
2022-09-13T21:06:29.546Z,39.88
2022-09-13T21:08:59.065Z,39.10
2022-09-13T21:11:30.171Z,38.28
2022-09-13T21:14:00.264Z,41.93
2022-09-13T21:16:30.457Z,39.92
2022-09-13T21:18:58.015Z,36.35
2022-09-13T21:21:30.462Z,39.25
2022-09-13T21:23:58.668Z,36.38
2022-09-13T21:26:27.028Z,24.60
2022-09-13T21:28:55.515Z,22.75
2022-09-13T21:31:25.195Z,15.00
2022-09-13T21:34:06.576Z,13.98
2022-09-13T21:36:37.643Z,16.30
2022-09-13T21:39:05.844Z,14.50
2022-09-13T21:41:33.953Z,16.25
2022-09-13T21:44:01.314Z,12.35
2022-09-13T21:46:30.621Z,10.93
2022-09-13T21:49:01.814Z,12.27
2022-09-13T21:51:28.639Z,8.80
2022-09-13T21:53:59.082Z,9.52
2022-09-13T21:56:28.729Z,9.32
2022-09-13T21:59:00.807Z,11.02
2022-09-13T22:01:39.495Z,11.73
2022-09-13T22:04:07.715Z,10.05
2022-09-13T22:06:37.803Z,9.45
2022-09-13T22:09:08.749Z,10.45
2022-09-13T22:11:40.830Z,11.95
2022-09-13T22:14:09.845Z,13.45
2022-09-13T22:16:38.761Z,10.20
2022-09-13T22:19:09.452Z,11.52
2022-09-13T22:21:38.999Z,11.70
2022-09-13T22:24:07.321Z,8.57
2022-09-13T22:26:37.595Z,9.43
2022-09-13T22:29:05.275Z,14.95
2022-09-13T22:31:35.872Z,12.70
2022-09-13T22:34:03.807Z,7.22
2022-09-13T22:36:31.136Z,10.88
2022-09-13T22:38:58.046Z,16.55
2022-09-13T22:41:27.679Z,9.68
2022-09-13T22:43:55.076Z,9.65
2022-09-13T22:46:24.294Z,7.28
2022-09-13T22:48:52.746Z,14.18
2022-09-13T22:51:20.423Z,13.50
2022-09-13T22:53:48.787Z,11.23
2022-09-13T22:56:37.396Z,12.63
2022-09-13T22:59:10.949Z,8.85
2022-09-13T23:01:38.306Z,9.82
2022-09-13T23:04:06.755Z,11.70
2022-09-13T23:06:34.636Z,9.55
2022-09-13T23:09:03.939Z,11.23
2022-09-13T23:11:33.378Z,12.65
2022-09-13T23:14:09.992Z,12.52
2022-09-13T23:16:43.331Z,9.52
2022-09-13T23:19:13.014Z,10.48
2022-09-13T23:21:40.945Z,11.63
2022-09-13T23:24:11.231Z,14.15
2022-09-13T23:26:38.342Z,9.27
2022-09-13T23:29:05.786Z,9.93
2022-09-13T23:31:35.458Z,11.73
2022-09-13T23:34:05.475Z,10.23
2022-09-13T23:36:37.762Z,9.93
2022-09-13T23:39:06.724Z,9.35
2022-09-13T23:41:34.629Z,11.20
2022-09-13T23:44:02.124Z,9.30
2022-09-13T23:46:29.408Z,9.35
2022-09-13T23:48:56.810Z,13.93
2022-09-13T23:51:26.186Z,13.43
2022-09-13T23:53:58.332Z,11.45
2022-09-13T23:56:26.567Z,10.70
2022-09-13T23:58:55.173Z,14.70
